createdAt,value
2023-08-22T00:04:01.709Z,101649.31
2023-08-22T00:09:04.715Z,101653.59
2023-08-22T00:14:07.046Z,101651.09
2023-08-22T00:19:08.823Z,101655.25
2023-08-22T00:24:10.224Z,101630.78
2023-08-22T00:29:11.595Z,101635.84
2023-08-22T00:34:12.976Z,101628.63
2023-08-22T00:39:14.339Z,101609.38
2023-08-22T00:44:15.775Z,101629.94
2023-08-22T00:49:17.293Z,101627.53
2023-08-22T00:54:19.639Z,101608.16
2023-08-22T00:59:21.132Z,101611.31
2023-08-22T01:04:22.778Z,101604.22
2023-08-22T01:10:02.937Z,101595.66
2023-08-22T01:15:13.608Z,101602.63
2023-08-22T01:20:15.540Z,101587.66
2023-08-22T01:25:17.172Z,101575.28
2023-08-22T01:30:31.502Z,101575.88
2023-08-22T01:35:33.154Z,101568.06
2023-08-22T01:40:34.686Z,101560.50
2023-08-22T01:45:36.219Z,101562.75
2023-08-22T01:50:37.731Z,101557.19
2023-08-22T01:55:39.242Z,101547.78
2023-08-22T02:00:40.798Z,101542.13
2023-08-22T02:05:42.791Z,101543.63
2023-08-22T02:10:44.295Z,101532.13
2023-08-22T02:15:45.852Z,101521.84
2023-08-22T02:20:50.787Z,101536.53
2023-08-22T02:25:52.311Z,101536.41
2023-08-22T02:30:57.399Z,101534.94
2023-08-22T02:35:59.005Z,101540.53
2023-08-22T02:41:00.707Z,101541.50
2023-08-22T02:46:02.291Z,101549.25
2023-08-22T02:51:05.394Z,101561.13
2023-08-22T02:56:07.427Z,101541.97
2023-08-22T03:01:09.092Z,101540.94
2023-08-22T03:06:10.640Z,101540.22
2023-08-22T03:11:12.227Z,101536.69
2023-08-22T03:16:13.822Z,101536.31
2023-08-22T03:21:15.610Z,101533.47
2023-08-22T03:26:17.161Z,101517.75
2023-08-22T03:31:18.783Z,101523.81
2023-08-22T03:36:21.031Z,101532.91
2023-08-22T03:41:22.544Z,101526.03
2023-08-22T03:46:37.227Z,101518.94
2023-08-22T03:51:40.677Z,101506.69
2023-08-22T03:56:42.283Z,101512.94
2023-08-22T04:01:43.809Z,101499.38
2023-08-22T04:06:45.378Z,101485.88
2023-08-22T04:11:46.893Z,101487.03
2023-08-22T04:16:48.456Z,101483.09
2023-08-22T04:21:50.034Z,101482.53
2023-08-22T04:26:52.740Z,101486.00
2023-08-22T04:31:54.853Z,101476.28
2023-08-22T04:36:56.393Z,101484.19
2023-08-22T04:41:57.903Z,101489.75
2023-08-22T04:46:59.404Z,101488.56
2023-08-22T04:52:00.921Z,101483.72
2023-08-22T04:57:02.433Z,101483.97
2023-08-22T05:02:04.020Z,101483.97
2023-08-22T05:07:05.628Z,101489.47
2023-08-22T05:12:07.402Z,101496.50
2023-08-22T05:17:08.986Z,101497.44
2023-08-22T05:22:11.014Z,101493.34
2023-08-22T05:27:12.412Z,101488.66
2023-08-22T05:32:13.914Z,101498.19
2023-08-22T05:37:15.432Z,101498.19
2023-08-22T05:42:16.939Z,101497.75
2023-08-22T05:47:18.476Z,101502.41
2023-08-22T05:52:20.481Z,101492.31
2023-08-22T05:57:23.826Z,101495.69
2023-08-22T06:02:25.349Z,101502.44
2023-08-22T06:07:27.254Z,101505.63
2023-08-22T06:12:28.629Z,101512.41
2023-08-22T06:17:30.063Z,101513.25
2023-08-22T06:22:31.496Z,101498.00
2023-08-22T06:27:33.166Z,101498.16
2023-08-22T06:32:34.736Z,101490.34
2023-08-22T06:37:36.393Z,101504.03
2023-08-22T06:42:37.930Z,101505.38
2023-08-22T06:47:40.163Z,101496.13
2023-08-22T06:52:41.990Z,101499.34
2023-08-22T06:57:43.557Z,101502.63
2023-08-22T07:02:46.102Z,101509.53
2023-08-22T07:07:47.647Z,101503.28
2023-08-22T07:12:49.331Z,101503.03
2023-08-22T07:17:51.060Z,101508.81
2023-08-22T07:22:52.599Z,101499.91
2023-08-22T07:27:54.173Z,101512.16
2023-08-22T07:32:55.772Z,101511.44
2023-08-22T07:37:57.308Z,101511.41
2023-08-22T07:43:00.181Z,101513.56
2023-08-22T07:48:01.959Z,101519.56
2023-08-22T07:53:05.697Z,101528.25
2023-08-22T07:58:07.286Z,101517.69
2023-08-22T08:03:08.731Z,101527.38
2023-08-22T08:08:10.292Z,101522.81
2023-08-22T08:13:11.928Z,101521.38
2023-08-22T08:18:14.630Z,101507.19
2023-08-22T08:23:16.167Z,101520.28
2023-08-22T08:28:17.710Z,101522.41
2023-08-22T08:33:19.097Z,101516.63
2023-08-22T08:38:20.930Z,101529.09
2023-08-22T08:43:22.885Z,101531.16
2023-08-22T08:48:24.406Z,101530.47
2023-08-22T08:53:26.281Z,101532.72
2023-08-22T08:58:28.271Z,101531.31
2023-08-22T09:03:30.255Z,101535.22
2023-08-22T09:08:31.843Z,101528.09
2023-08-22T09:13:54.175Z,101525.94
2023-08-22T09:19:00.197Z,101536.28
2023-08-22T09:24:10.806Z,101538.91
2023-08-22T09:29:12.788Z,101529.63
2023-08-22T09:34:15.775Z,101524.16
2023-08-22T09:39:17.679Z,101531.88
2023-08-22T09:44:20.846Z,101532.41
2023-08-22T09:49:22.596Z,101529.91
2023-08-22T09:54:24.160Z,101532.84
2023-08-22T09:59:25.721Z,101528.97
2023-08-22T10:04:27.169Z,101521.28
2023-08-22T10:09:28.773Z,101526.75
2023-08-22T10:14:30.980Z,101527.41
2023-08-22T10:19:32.522Z,101533.13
2023-08-22T10:24:34.269Z,101531.31
2023-08-22T10:29:46.281Z,101522.69
2023-08-22T10:34:47.952Z,101519.38
2023-08-22T10:39:49.902Z,101520.47
2023-08-22T10:44:56.997Z,101533.22
2023-08-22T10:50:14.992Z,101528.03
2023-08-22T10:55:18.469Z,101524.72
2023-08-22T11:00:22.956Z,101524.34
2023-08-22T11:05:24.685Z,101519.47
2023-08-22T11:10:26.406Z,101526.34
2023-08-22T11:15:28.056Z,101533.47
2023-08-22T11:20:29.553Z,101531.81
2023-08-22T11:25:31.068Z,101530.88
2023-08-22T11:30:32.605Z,101534.88
2023-08-22T11:35:34.106Z,101544.97
2023-08-22T11:40:35.605Z,101539.28
2023-08-22T11:45:49.674Z,101533.50
2023-08-22T11:50:51.186Z,101541.34
2023-08-22T11:55:56.571Z,101533.34
2023-08-22T12:00:58.237Z,101526.97
2023-08-22T12:05:59.756Z,101528.44
2023-08-22T12:11:02.455Z,101528.97
2023-08-22T12:16:04.049Z,101535.63
2023-08-22T12:21:05.604Z,101530.56
2023-08-22T12:26:07.120Z,101535.41
2023-08-22T12:31:08.790Z,101535.22
2023-08-22T12:36:10.375Z,101542.84
2023-08-22T12:41:12.995Z,101535.88
2023-08-22T12:46:14.551Z,101522.06
2023-08-22T12:51:16.099Z,101529.97
2023-08-22T12:56:17.909Z,101519.00
2023-08-22T13:01:19.454Z,101524.53
2023-08-22T13:06:20.991Z,101525.16
2023-08-22T13:11:22.509Z,101533.91
2023-08-22T13:16:24.058Z,101534.28
2023-08-22T13:21:25.611Z,101529.34
2023-08-22T13:26:27.216Z,101532.06
2023-08-22T13:31:28.827Z,101531.19
2023-08-22T13:36:31.398Z,101527.94
2023-08-22T13:41:32.895Z,101512.38
2023-08-22T13:46:34.463Z,101514.06
2023-08-22T13:51:36.080Z,101503.22
2023-08-22T13:56:37.592Z,101511.72
2023-08-22T14:01:39.216Z,101514.66
2023-08-22T14:06:40.797Z,101505.97
2023-08-22T14:11:42.306Z,101507.75
2023-08-22T14:16:43.814Z,101502.63
2023-08-22T14:21:48.501Z,101495.78
2023-08-22T14:26:50.462Z,101502.38
2023-08-22T14:31:52.039Z,101498.75
2023-08-22T14:36:53.572Z,101493.34
2023-08-22T14:41:55.090Z,101498.19
2023-08-22T14:46:56.644Z,101487.84
2023-08-22T14:51:58.540Z,101490.50
2023-08-22T14:57:00.055Z,101485.16
2023-08-22T15:02:01.572Z,101478.34
2023-08-22T15:07:03.544Z,101482.66
2023-08-22T15:12:06.477Z,101481.94
2023-08-22T15:17:08.077Z,101471.66
2023-08-22T15:22:09.610Z,101477.44
2023-08-22T15:27:12.360Z,101481.00
2023-08-22T15:32:13.999Z,101489.50
2023-08-22T15:37:15.515Z,101479.50
2023-08-22T15:42:17.442Z,101480.59
2023-08-22T15:47:18.980Z,101480.66
2023-08-22T15:52:31.050Z,101474.38
2023-08-22T15:57:40.792Z,101481.63
2023-08-22T16:02:42.330Z,101490.50
2023-08-22T16:07:44.231Z,101486.13
2023-08-22T16:12:45.979Z,101486.25
2023-08-22T16:17:47.765Z,101492.28
2023-08-22T16:22:49.475Z,101495.66
2023-08-22T16:27:51.377Z,101496.66
2023-08-22T16:32:53.183Z,101499.81
2023-08-22T16:37:54.737Z,101493.31
2023-08-22T16:42:56.244Z,101500.47
2023-08-22T16:47:57.836Z,101482.41
2023-08-22T16:52:59.479Z,101483.94
2023-08-22T16:58:01.128Z,101489.78
2023-08-22T17:03:02.962Z,101493.06
2023-08-22T17:08:04.711Z,101484.44
2023-08-22T17:13:06.216Z,101487.22
2023-08-22T17:18:08.133Z,101491.91
2023-08-22T17:23:09.762Z,101490.06
2023-08-22T17:28:11.302Z,101485.91
2023-08-22T17:33:12.730Z,101493.66
2023-08-22T17:38:14.771Z,101494.34
2023-08-22T17:43:16.395Z,101500.72
2023-08-22T17:48:17.946Z,101491.44
2023-08-22T17:53:20.795Z,101495.56
2023-08-22T17:58:22.415Z,101495.66
2023-08-22T18:03:24.029Z,101490.50
2023-08-22T18:08:25.735Z,101484.84
2023-08-22T18:13:27.224Z,101480.38
2023-08-22T18:18:29.449Z,101482.41
2023-08-22T18:23:31.358Z,101488.31
2023-08-22T18:28:33.511Z,101495.38
2023-08-22T18:33:35.466Z,101500.84
2023-08-22T18:38:36.969Z,101514.63
2023-08-22T18:43:38.485Z,101515.44
2023-08-22T18:48:41.022Z,101517.13
2023-08-22T18:53:42.588Z,101532.16
2023-08-22T18:58:44.128Z,101522.31
2023-08-22T19:03:45.691Z,101526.88
2023-08-22T19:08:47.280Z,101532.44
2023-08-22T19:13:49.632Z,101537.22
2023-08-22T19:18:51.165Z,101542.31
2023-08-22T19:23:52.709Z,101540.28
2023-08-22T19:28:54.234Z,101545.69
2023-08-22T19:33:55.893Z,101542.88
2023-08-22T19:38:57.475Z,101537.75
2023-08-22T19:43:59.005Z,101538.44
2023-08-22T19:49:00.682Z,101536.13
2023-08-22T19:54:02.337Z,101532.84
2023-08-22T19:59:03.841Z,101534.22
2023-08-22T20:04:05.369Z,101525.25
2023-08-22T20:09:13.727Z,101533.09
2023-08-22T20:14:15.322Z,101542.75
2023-08-22T20:19:17.835Z,101548.56
2023-08-22T20:24:19.384Z,101550.91
2023-08-22T20:29:20.884Z,101553.00
2023-08-22T20:34:22.414Z,101572.88
2023-08-22T20:39:28.214Z,101559.16
2023-08-22T20:44:29.716Z,101555.91
2023-08-22T20:49:31.258Z,101559.72
2023-08-22T20:54:33.644Z,101542.81
2023-08-22T20:59:35.151Z,101551.03
2023-08-22T21:04:36.658Z,101541.91
2023-08-22T21:09:38.274Z,101530.34
2023-08-22T21:14:39.833Z,101525.56
2023-08-22T21:19:41.341Z,101531.88
2023-08-22T21:24:43.737Z,101542.72
2023-08-22T21:29:45.471Z,101539.78
2023-08-22T21:34:47.416Z,101536.28
2023-08-22T21:39:49.350Z,101525.09
2023-08-22T21:44:50.857Z,101521.75
2023-08-22T21:49:55.569Z,101521.75
2023-08-22T21:54:57.089Z,101533.75
2023-08-22T21:59:58.598Z,101524.00
2023-08-22T22:05:00.118Z,101528.66
2023-08-22T22:10:01.677Z,101536.69
2023-08-22T22:15:04.010Z,101528.56
2023-08-22T22:20:06.001Z,101521.00
2023-08-22T22:25:07.952Z,101535.19
2023-08-22T22:30:09.739Z,101531.88
2023-08-22T22:35:11.314Z,101523.66
2023-08-22T22:40:12.833Z,101528.50
2023-08-22T22:45:14.353Z,101529.97
2023-08-22T22:50:15.906Z,101518.81
2023-08-22T22:55:17.465Z,101509.59
2023-08-22T23:00:18.998Z,101514.94
2023-08-22T23:05:23.526Z,101514.28
2023-08-22T23:10:25.103Z,101506.53
2023-08-22T23:15:27.620Z,101511.78
2023-08-22T23:20:29.155Z,101511.78
2023-08-22T23:25:30.660Z,101522.38
2023-08-22T23:30:32.648Z,101520.69
2023-08-22T23:35:34.190Z,101523.13
2023-08-22T23:40:35.979Z,101523.13
2023-08-22T23:45:37.629Z,101528.31
2023-08-22T23:50:39.138Z,101510.13
2023-08-22T23:55:40.690Z,101511.53
